Time;durP1;ratioP1;P1;durP2;ratioP2;P2;SDS_P1;SDS_P2;PMS_P1;PMS_P2;Temp;Humidity;BMP_temperature;BMP_pressure;BME280_temperature;BME280_humidity;BME280_pressure;Samples;Min_cycle;Max_cycle;Signal;HPM_P1;HPM_P2
2022/04/03 00:00:58;;;;;;;0.30;0.23;;;;;;;9.61;100.00;94367.00;5093025;28;20474;-52
2022/04/03 00:03:26;;;;;;;0.40;0.27;;;;;;;9.83;100.00;94363.78;5093368;28;20420;-52
2022/04/03 00:05:55;;;;;;;0.30;0.20;;;;;;;9.47;100.00;94331.75;5093178;28;20459;-52
2022/04/03 00:08:27;;;;;;;0.53;0.53;;;;;;;9.87;100.00;94360.28;5092808;28;20420;-52
2022/04/03 00:10:55;;;;;;;0.30;0.20;;;;;;;9.80;100.00;94372.28;5092642;28;20556;-52
2022/04/03 00:13:24;;;;;;;0.40;0.40;;;;;;;9.77;100.00;94371.00;5091745;28;20475;-52
2022/04/03 00:15:56;;;;;;;0.40;0.30;;;;;;;9.88;100.00;94361.84;5092722;28;20467;-53
2022/04/03 00:18:24;;;;;;;0.83;0.83;;;;;;;9.44;100.00;94324.38;5092811;28;20473;-53
2022/04/03 00:20:53;;;;;;;0.53;0.53;;;;;;;8.11;100.00;94177.56;5092990;28;20433;-53
2022/04/03 00:23:23;;;;;;;0.40;0.40;;;;;;;8.01;100.00;94160.00;5092733;28;20912;-53
2022/04/03 00:25:52;;;;;;;0.30;0.20;;;;;;;8.99;100.00;94275.56;5092903;28;20425;-53
2022/04/03 00:28:20;;;;;;;0.30;0.20;;;;;;;9.37;100.00;94294.88;5092697;28;20839;-53
2022/04/03 00:30:49;;;;;;;0.50;0.50;;;;;;;9.54;100.00;94340.13;5092512;28;20929;-53
2022/04/03 00:33:19;;;;;;;0.30;0.20;;;;;;;9.80;100.00;94341.34;5092652;28;20460;-53
2022/04/03 00:35:47;;;;;;;0.50;0.40;;;;;;;9.47;100.00;94332.53;5091940;28;20997;-53
2022/04/03 00:38:16;;;;;;;0.30;0.20;;;;;;;9.68;100.00;94338.34;5092482;28;20432;-53
2022/04/03 00:40:45;;;;;;;0.40;0.30;;;;;;;9.85;100.00;94345.75;5092300;28;20443;-53
2022/04/03 00:43:15;;;;;;;0.30;0.20;;;;;;;9.31;100.00;94319.84;5092754;28;20447;-53
2022/04/03 00:45:46;;;;;;;0.40;0.30;;;;;;;9.07;100.00;94267.00;5092199;28;20863;-53
2022/04/03 00:48:15;;;;;;;0.30;0.20;;;;;;;7.87;100.00;94037.00;5092563;28;20491;-52
2022/04/03 00:50:46;;;;;;;0.40;0.20;;;;;;;8.99;100.00;94211.34;5092405;28;20456;-52
2022/04/03 00:53:14;;;;;;;0.40;0.30;;;;;;;8.63;100.00;94159.00;5092109;28;20506;-53
2022/04/03 00:55:44;;;;;;;0.30;0.30;;;;;;;9.34;100.00;94350.97;5092177;28;20471;-52
2022/04/03 00:58:13;;;;;;;0.30;0.20;;;;;;;8.58;100.00;94314.88;5092131;28;20789;-53
2022/04/03 01:00:42;;;;;;;0.40;0.30;;;;;;;7.32;100.00;94181.50;5092000;28;20955;-52
2022/04/03 01:03:10;;;;;;;0.40;0.30;;;;;;;8.20;100.00;94289.38;5091965;28;20531;-52
2022/04/03 01:05:39;;;;;;;0.30;0.27;;;;;;;8.64;100.00;94342.81;5091980;28;20478;-52
2022/04/03 01:08:09;;;;;;;0.30;0.20;;;;;;;7.79;100.00;94209.03;5092195;28;20451;-52
2022/04/03 01:10:40;;;;;;;0.37;0.33;;;;;;;8.71;100.00;94351.19;5091734;28;21046;-52
2022/04/03 01:13:08;;;;;;;0.30;0.20;;;;;;;8.77;100.00;94358.00;5091929;28;20563;-52
2022/04/03 01:15:37;;;;;;;0.30;0.20;;;;;;;8.47;100.00;94271.19;5091913;28;20530;-52
2022/04/03 01:18:06;;;;;;;0.40;0.30;;;;;;;9.25;100.00;94350.03;5092207;28;20455;-52
2022/04/03 01:20:35;;;;;;;0.73;0.73;;;;;;;8.70;100.00;94301.28;5091434;28;20520;-52
2022/04/03 01:23:03;;;;;;;0.70;0.70;;;;;;;9.31;100.00;94356.84;5091753;28;20791;-52
2022/04/03 01:25:33;;;;;;;0.50;0.30;;;;;;;9.41;100.00;94333.69;5091917;28;20515;-52
2022/04/03 01:28:01;;;;;;;1.27;0.97;;;;;;;9.00;100.00;94284.28;5091936;28;20424;-52
2022/04/03 01:30:30;;;;;;;0.40;0.30;;;;;;;9.62;100.00;94346.63;5091689;28;20464;-52
2022/04/03 01:32:58;;;;;;;0.30;0.20;;;;;;;8.62;100.00;94276.28;5091789;28;20496;-52
2022/04/03 01:35:27;;;;;;;0.40;0.30;;;;;;;9.13;100.00;94324.03;5091766;28;20463;-52
2022/04/03 01:37:55;;;;;;;0.33;0.30;;;;;;;8.89;100.00;94294.97;5092053;28;20499;-52
2022/04/03 01:40:23;;;;;;;0.30;0.20;;;;;;;9.11;100.00;94320.84;5091741;28;20554;-52
2022/04/03 01:42:53;;;;;;;0.40;0.30;;;;;;;8.30;100.00;94337.59;5091770;28;20421;-53
2022/04/03 01:45:22;;;;;;;0.83;0.83;;;;;;;7.63;100.00;94269.84;5091735;28;20452;-52
2022/04/03 01:47:51;;;;;;;0.40;0.30;;;;;;;8.50;100.00;94364.91;5091560;28;20424;-52
2022/04/03 01:50:19;;;;;;;0.30;0.20;;;;;;;8.83;100.00;94369.28;5091648;28;20474;-52
2022/04/03 01:52:48;;;;;;;0.30;0.20;;;;;;;8.28;100.00;94334.47;5091821;28;20496;-52
2022/04/03 01:55:16;;;;;;;0.30;0.20;;;;;;;8.82;100.00;94383.56;5091901;28;20514;-52
2022/04/03 01:57:46;;;;;;;0.30;0.20;;;;;;;8.73;100.00;94387.88;5091467;28;20465;-52
2022/04/03 02:00:16;;;;;;;0.30;0.20;;;;;;;8.29;100.00;94388.03;5091637;28;20463;-52
2022/04/03 02:02:45;;;;;;;0.30;0.20;;;;;;;7.42;100.00;94230.72;5091646;28;20493;-52
2022/04/03 02:05:13;;;;;;;1.10;0.30;;;;;;;8.67;100.00;94379.25;5092012;28;20495;-52
2022/04/03 02:07:42;;;;;;;0.30;0.20;;;;;;;8.42;100.00;94315.31;5091986;28;20478;-52
2022/04/03 02:10:12;;;;;;;0.30;0.20;;;;;;;8.70;100.00;94383.94;5091459;28;20906;-52
2022/04/03 02:12:41;;;;;;;0.40;0.40;;;;;;;9.05;100.00;94385.44;5091531;28;20984;-52
2022/04/03 02:15:11;;;;;;;0.40;0.33;;;;;;;9.01;100.00;94384.41;5091679;28;20503;-53
2022/04/03 02:17:41;;;;;;;0.40;0.40;;;;;;;9.14;100.00;94372.38;5091435;28;20459;-52
2022/04/03 02:20:11;;;;;;;0.30;0.30;;;;;;;8.65;100.00;94356.81;5091443;28;20425;-52
2022/04/03 02:22:39;;;;;;;0.30;0.30;;;;;;;8.39;100.00;94343.06;5091286;28;20519;-53
2022/04/03 02:25:11;;;;;;;0.40;0.30;;;;;;;8.72;100.00;94375.75;5091265;28;20483;-52
2022/04/03 02:27:40;;;;;;;0.30;0.20;;;;;;;8.68;100.00;94372.09;5091227;28;20424;-52
2022/04/03 02:30:10;;;;;;;0.30;0.30;;;;;;;8.36;100.00;94319.88;5091362;28;20420;-52
2022/04/03 02:32:41;;;;;;;0.47;0.43;;;;;;;9.02;100.00;94372.00;5093002;28;20428;-52
2022/04/03 02:35:10;;;;;;;0.30;0.20;;;;;;;8.85;100.00;94381.16;5094109;28;20867;-52
2022/04/03 02:37:42;;;;;;;1.37;0.30;;;;;;;9.06;100.00;94386.22;5094705;28;20467;-52
2022/04/03 02:40:13;;;;;;;0.40;0.30;;;;;;;9.37;100.00;94382.13;5095110;28;20863;-52
2022/04/03 02:42:42;;;;;;;0.40;0.30;;;;;;;8.62;100.00;94354.72;5095110;28;20459;-52
2022/04/03 02:45:12;;;;;;;0.40;0.33;;;;;;;8.43;100.00;94399.53;5094700;28;20479;-52
2022/04/03 02:47:49;;;;;;;1.33;1.00;;;;;;;8.63;100.00;94404.63;5094903;28;20440;-52
2022/04/03 02:50:19;;;;;;;1.13;1.13;;;;;;;8.88;100.00;94417.56;5094919;28;20452;-53
2022/04/03 02:52:48;;;;;;;0.50;0.50;;;;;;;8.32;100.00;94414.66;5094440;28;20443;-52
2022/04/03 02:55:17;;;;;;;0.40;0.30;;;;;;;7.91;100.00;94362.47;5094630;28;20520;-53
2022/04/03 02:57:45;;;;;;;0.30;0.20;;;;;;;8.39;100.00;94400.38;5094120;28;20460;-53
2022/04/03 03:00:14;;;;;;;0.30;0.20;;;;;;;7.64;100.00;94321.50;5094599;28;20509;-53
2022/04/03 03:02:45;;;;;;;0.40;0.30;;;;;;;7.61;100.00;94348.41;5094306;28;20841;-53
2022/04/03 03:05:14;;;;;;;0.30;0.20;;;;;;;6.98;100.00;94263.13;5094419;28;20971;-53
2022/04/03 03:07:45;;;;;;;0.30;0.20;;;;;;;8.09;100.00;94415.38;5093324;28;20458;-53
2022/04/03 03:10:15;;;;;;;0.30;0.20;;;;;;;7.98;100.00;94403.28;5093783;28;20468;-52
2022/04/03 03:12:44;;;;;;;0.30;0.20;;;;;;;8.09;100.00;94382.91;5094146;28;20475;-52
2022/04/03 03:15:13;;;;;;;0.50;0.50;;;;;;;7.66;100.00;94271.91;5094122;28;20438;-52
2022/04/03 03:17:44;;;;;;;0.40;0.40;;;;;;;8.12;100.00;94290.00;5094431;28;20512;-52
2022/04/03 03:20:19;;;;;;;0.33;0.27;;;;;;;8.09;100.00;94367.88;5093756;28;20416;-53
2022/04/03 03:22:48;;;;;;;0.30;0.20;;;;;;;7.35;100.00;94304.81;5094251;28;20535;-53
2022/04/03 03:25:17;;;;;;;0.30;0.20;;;;;;;7.75;100.00;94374.16;5094058;28;20420;-52
2022/04/03 03:27:45;;;;;;;0.30;0.20;;;;;;;7.79;100.00;94370.72;5093903;28;20432;-53
2022/04/03 03:30:13;;;;;;;0.30;0.20;;;;;;;6.92;100.00;94193.13;5093937;28;20481;-53
2022/04/03 03:32:42;;;;;;;0.30;0.20;;;;;;;7.72;100.00;94367.59;5093815;28;20472;-53
2022/04/03 03:35:12;;;;;;;0.30;0.20;;;;;;;7.26;100.00;94371.56;5093843;28;20542;-53
2022/04/03 03:37:40;;;;;;;14.40;1.90;;;;;;;7.39;100.00;94374.38;5093668;28;20425;-53
2022/04/03 03:40:11;;;;;;;0.30;0.20;;;;;;;7.74;100.00;94376.03;5093828;28;20432;-53
2022/04/03 03:42:42;;;;;;;0.50;0.50;;;;;;;8.12;100.00;94371.81;5093318;28;20425;-53
2022/04/03 03:45:11;;;;;;;0.30;0.20;;;;;;;8.31;100.00;94375.34;5093289;28;20791;-53
2022/04/03 03:47:40;;;;;;;0.30;0.20;;;;;;;8.31;100.00;94380.63;5092996;28;20897;-53
2022/04/03 03:50:14;;;;;;;0.30;0.20;;;;;;;8.36;100.00;94396.44;5093555;28;20432;-53
2022/04/03 03:52:43;;;;;;;0.37;0.27;;;;;;;7.77;100.00;94332.50;5092823;28;20486;-53
2022/04/03 03:55:11;;;;;;;0.30;0.20;;;;;;;8.54;100.00;94406.31;5093650;28;20547;-53
2022/04/03 03:57:40;;;;;;;0.30;0.20;;;;;;;7.80;100.00;94414.50;5093570;28;20457;-53
2022/04/03 04:00:10;;;;;;;0.30;0.20;;;;;;;8.27;100.00;94421.84;5093339;28;20515;-53
2022/04/03 04:02:39;;;;;;;0.67;0.67;;;;;;;8.19;100.00;94420.56;5093520;28;20436;-53
2022/04/03 04:05:09;;;;;;;0.50;0.30;;;;;;;7.61;100.00;94408.28;5093551;28;20426;-53
2022/04/03 04:07:44;;;;;;;0.30;0.20;;;;;;;7.93;100.00;94429.72;5092679;28;20986;-53
2022/04/03 04:10:14;;;;;;;0.30;0.27;;;;;;;8.06;100.00;94433.59;5092962;28;20518;-53
2022/04/03 04:12:44;;;;;;;0.30;0.20;;;;;;;7.92;100.00;94436.03;5093066;28;20485;-53
2022/04/03 04:15:13;;;;;;;0.80;0.80;;;;;;;7.77;100.00;94433.50;5093022;28;20545;-53
2022/04/03 04:17:44;;;;;;;4.67;1.60;;;;;;;8.19;100.00;94443.53;5093241;28;20505;-54
2022/04/03 04:20:15;;;;;;;0.50;0.30;;;;;;;8.09;100.00;94422.47;5093191;28;20452;-53
2022/04/03 04:22:47;;;;;;;0.30;0.20;;;;;;;8.18;100.00;94434.03;5092625;28;20439;-53
2022/04/03 04:25:17;;;;;;;0.40;0.30;;;;;;;8.62;100.00;94445.31;5093162;28;20425;-53
2022/04/03 04:27:46;;;;;;;0.30;0.20;;;;;;;8.67;100.00;94437.34;5093060;28;20433;-54
2022/04/03 04:30:17;;;;;;;0.30;0.20;;;;;;;8.90;100.00;94435.81;5092418;28;20940;-53
2022/04/03 04:32:46;;;;;;;0.50;0.50;;;;;;;8.59;100.00;94443.22;5092476;28;21012;-54
2022/04/03 04:35:14;;;;;;;0.40;0.30;;;;;;;8.43;100.00;94438.34;5092449;28;20931;-54
2022/04/03 04:37:44;;;;;;;0.40;0.30;;;;;;;8.74;100.00;94443.09;5092364;28;20446;-55
2022/04/03 04:40:13;;;;;;;0.40;0.30;;;;;;;8.10;100.00;94442.50;5092410;28;20923;-55
2022/04/03 04:42:41;;;;;;;0.30;0.20;;;;;;;8.12;100.00;94449.09;5092230;28;20976;-55
2022/04/03 04:45:11;;;;;;;2.87;1.73;;;;;;;8.54;100.00;94455.69;5092601;28;20420;-55
2022/04/03 04:47:45;;;;;;;0.30;0.30;;;;;;;7.68;100.00;94451.75;5092173;28;20424;-54
2022/04/03 04:50:15;;;;;;;0.40;0.30;;;;;;;6.95;100.00;94460.47;5092257;28;20424;-54
2022/04/03 04:52:45;;;;;;;0.90;0.90;;;;;;;7.45;100.00;94468.19;5091784;28;20464;-54
2022/04/03 04:55:13;;;;;;;0.90;0.77;;;;;;;7.90;100.00;94474.31;5091724;28;20575;-54
2022/04/03 04:57:42;;;;;;;1.83;0.40;;;;;;;7.97;100.00;94480.84;5091273;28;20460;-54
2022/04/03 05:00:13;;;;;;;0.30;0.30;;;;;;;8.00;100.00;94471.59;5092090;28;20459;-54
2022/04/03 05:02:45;;;;;;;0.30;0.20;;;;;;;8.08;100.00;94476.31;5092287;28;20850;-53
2022/04/03 05:05:14;;;;;;;0.30;0.20;;;;;;;8.08;100.00;94476.31;5091473;28;20427;-53
2022/04/03 05:07:43;;;;;;;0.60;0.60;;;;;;;8.06;100.00;94479.25;5091444;28;20476;-54
2022/04/03 05:10:15;;;;;;;0.47;0.47;;;;;;;8.50;100.00;94473.94;5091542;28;20510;-54
2022/04/03 05:12:44;;;;;;;0.50;0.50;;;;;;;8.63;100.00;94481.22;5091957;28;20479;-53
2022/04/03 05:15:13;;;;;;;0.30;0.20;;;;;;;8.83;100.00;94483.69;5091752;28;20511;-54
2022/04/03 05:17:43;;;;;;;0.30;0.20;;;;;;;9.04;100.00;94486.94;5091731;28;20456;-54
2022/04/03 05:20:13;;;;;;;0.80;0.80;;;;;;;8.70;100.00;94486.19;5091901;28;20482;-54
2022/04/03 05:22:42;;;;;;;0.50;0.50;;;;;;;8.57;100.00;94494.75;5091783;28;20566;-54
2022/04/03 05:25:12;;;;;;;0.40;0.37;;;;;;;8.58;100.00;94498.94;5092146;28;20460;-54
2022/04/03 05:27:43;;;;;;;0.50;0.50;;;;;;;8.54;100.00;94469.69;5091328;28;20429;-54
2022/04/03 05:30:13;;;;;;;0.40;0.33;;;;;;;8.59;100.00;94501.34;5091858;28;20893;-54
2022/04/03 05:32:41;;;;;;;1.33;1.23;;;;;;;7.88;100.00;94413.13;5091728;28;20994;-54
2022/04/03 05:35:13;;;;;;;0.40;0.30;;;;;;;8.89;100.00;94497.66;5091530;28;20504;-53
2022/04/03 05:37:44;;;;;;;0.30;0.20;;;;;;;9.25;100.00;94500.72;5091971;28;20451;-54
2022/04/03 05:40:15;;;;;;;0.30;0.30;;;;;;;9.10;100.00;94495.59;5092037;28;20777;-54
2022/04/03 05:42:45;;;;;;;1.27;1.27;;;;;;;9.37;100.00;94504.56;5091968;28;20436;-54
2022/04/03 05:45:14;;;;;;;0.40;0.30;;;;;;;9.25;100.00;94506.03;5091585;28;20512;-54
2022/04/03 05:47:43;;;;;;;0.40;0.30;;;;;;;8.94;100.00;94500.25;5091581;28;20475;-54
2022/04/03 05:50:14;;;;;;;0.30;0.20;;;;;;;8.97;100.00;94504.19;5091796;28;20413;-54
2022/04/03 05:52:47;;;;;;;0.30;0.30;;;;;;;8.16;100.00;94510.03;5091729;28;20428;-54
2022/04/03 05:55:17;;;;;;;1.80;1.70;;;;;;;9.04;100.00;94516.00;5091504;28;20956;-53
2022/04/03 05:57:48;;;;;;;0.47;0.30;;;;;;;9.83;100.00;94504.03;5091564;28;20472;-54
2022/04/03 06:00:18;;;;;;;0.30;0.23;;;;;;;10.21;100.00;94508.34;5091975;28;20439;-53
2022/04/03 06:02:48;;;;;;;2.50;2.30;;;;;;;9.41;100.00;94484.41;5091697;28;20436;-54
2022/04/03 06:05:19;;;;;;;0.40;0.27;;;;;;;8.76;100.00;94512.28;5091921;28;20481;-53
2022/04/03 06:07:47;;;;;;;0.53;0.53;;;;;;;9.19;100.00;94523.00;5095360;28;21024;-54
2022/04/03 06:10:16;;;;;;;0.50;0.43;;;;;;;10.09;100.00;94507.94;5095237;28;20541;-54
2022/04/03 06:13:00;;;;;;;0.50;0.50;;;;;;;9.59;100.00;94519.91;5095369;28;20448;-54
2022/04/03 06:15:31;;;;;;;0.30;0.30;;;;;;;9.82;100.00;94521.78;5095177;28;20568;-54
2022/04/03 06:18:00;;;;;;;1.00;1.00;;;;;;;10.30;100.00;94533.09;5095223;28;20435;-54
2022/04/03 06:20:29;;;;;;;0.50;0.50;;;;;;;10.23;100.00;94532.66;5095523;28;20493;-54
2022/04/03 06:22:57;;;;;;;0.77;0.77;;;;;;;9.27;100.00;94522.38;5095383;28;20425;-54
2022/04/03 06:25:26;;;;;;;0.70;0.70;;;;;;;9.08;100.00;94534.75;5095138;28;20515;-54
2022/04/03 06:27:54;;;;;;;0.30;0.20;;;;;;;9.63;100.00;94534.19;5095139;28;20460;-54
2022/04/03 06:30:25;;;;;;;1.20;1.20;;;;;;;9.84;100.00;94542.69;5095164;28;20432;-53
2022/04/03 06:32:53;;;;;;;0.40;0.40;;;;;;;10.11;100.00;94541.00;5094150;28;20440;-54
2022/04/03 06:35:22;;;;;;;5.10;0.33;;;;;;;10.00;100.00;94491.91;5094060;28;20517;-54
2022/04/03 06:37:50;;;;;;;0.60;0.60;;;;;;;10.99;100.00;94545.56;5094143;28;20523;-54
2022/04/03 06:40:18;;;;;;;0.40;0.30;;;;;;;9.92;100.00;94384.00;5094040;28;20474;-54
2022/04/03 06:42:47;;;;;;;0.37;0.30;;;;;;;10.71;100.00;94551.84;5093976;28;20436;-54
2022/04/03 06:45:16;;;;;;;0.47;0.30;;;;;;;10.98;100.00;94581.09;5092432;28;20549;-54
2022/04/03 06:47:46;;;;;;;0.70;0.70;;;;;;;11.16;100.00;94563.59;5093279;28;20471;-53
2022/04/03 06:50:15;;;;;;;0.80;0.80;;;;;;;11.02;100.00;94555.59;5093543;28;21112;-53
2022/04/03 06:52:44;;;;;;;0.30;0.20;;;;;;;11.36;100.00;94555.28;5093485;28;20439;-53
2022/04/03 06:55:13;;;;;;;0.80;0.50;;;;;;;11.03;100.00;94479.50;5093419;28;20984;-53
2022/04/03 06:57:42;;;;;;;0.30;0.30;;;;;;;11.68;100.00;94430.53;5093706;28;20489;-53
2022/04/03 07:00:12;;;;;;;0.40;0.30;;;;;;;12.59;100.00;94561.38;5094442;28;20467;-53
2022/04/03 07:02:41;;;;;;;0.53;0.53;;;;;;;13.00;97.44;94495.53;5094778;28;20420;-53
2022/04/03 07:05:12;;;;;;;0.40;0.30;;;;;;;13.34;94.37;94569.47;5094481;28;20463;-53
2022/04/03 07:07:40;;;;;;;0.40;0.33;;;;;;;13.25;97.90;94576.63;5094377;28;20432;-53
2022/04/03 07:10:09;;;;;;;0.40;0.30;;;;;;;13.08;85.12;94584.50;5094214;28;20475;-53
2022/04/03 07:12:38;;;;;;;0.67;0.67;;;;;;;12.01;87.05;94428.50;5094623;28;20412;-53
2022/04/03 07:15:11;;;;;;;0.40;0.40;;;;;;;13.63;88.66;94582.34;5094419;28;20421;-53
2022/04/03 07:17:40;;;;;;;2.60;1.47;;;;;;;13.19;80.17;94572.50;5093382;28;20428;-53
2022/04/03 07:20:14;;;;;;;0.30;0.20;;;;;;;13.73;69.60;94588.19;5094410;28;20447;-54
2022/04/03 07:22:43;;;;;;;1.23;1.13;;;;;;;13.79;52.43;94567.50;5094066;28;20420;-54
2022/04/03 07:25:12;;;;;;;0.90;0.63;;;;;;;14.09;43.35;94470.00;5093544;28;20470;-54
2022/04/03 07:27:41;;;;;;;0.60;0.60;;;;;;;13.73;77.76;94566.88;5093918;28;20417;-54
2022/04/03 07:30:12;;;;;;;0.30;0.20;;;;;;;15.55;68.41;94559.59;5093947;28;20436;-54
2022/04/03 07:32:41;;;;;;;0.30;0.20;;;;;;;15.98;53.02;94575.50;5094086;28;20479;-54
2022/04/03 07:35:12;;;;;;;0.33;0.20;;;;;;;16.00;50.71;94578.63;5093673;28;20493;-55
2022/04/03 07:37:41;;;;;;;2.20;1.07;;;;;;;15.25;53.82;94573.91;5094038;28;20476;-55
2022/04/03 07:40:11;;;;;;;0.40;0.30;;;;;;;15.82;54.63;94590.47;5094070;28;20455;-55
2022/04/03 07:42:40;;;;;;;0.40;0.30;;;;;;;15.24;54.53;94602.50;5093915;28;20421;-56
2022/04/03 07:45:11;;;;;;;1.93;0.83;;;;;;;14.40;40.80;94514.13;5093588;28;20467;-56
2022/04/03 07:47:46;;;;;;;0.70;0.70;;;;;;;14.13;54.56;94601.50;5093920;28;20495;-56
2022/04/03 07:50:16;;;;;;;0.50;0.40;;;;;;;14.48;47.05;94590.66;5093805;28;20416;-56
2022/04/03 07:52:45;;;;;;;0.50;0.30;;;;;;;14.67;40.34;94586.94;5093432;28;20972;-56
2022/04/03 07:55:14;;;;;;;0.33;0.27;;;;;;;13.42;38.39;94583.94;5093384;28;20945;-56
2022/04/03 07:57:42;;;;;;;0.33;0.27;;;;;;;13.62;41.45;94600.19;5093433;28;20446;-56
2022/04/03 08:00:13;;;;;;;0.60;0.47;;;;;;;13.84;37.23;94629.44;5093313;28;20428;-57
2022/04/03 08:02:42;;;;;;;0.30;0.20;;;;;;;13.80;37.14;94599.19;5093319;28;20930;-57
2022/04/03 08:05:11;;;;;;;0.30;0.20;;;;;;;14.18;39.29;94588.84;5093265;28;20435;-59
2022/04/03 08:07:43;;;;;;;0.30;0.20;;;;;;;14.29;36.89;94528.03;5093079;28;20504;-60
2022/04/03 08:10:14;;;;;;;0.40;0.30;;;;;;;14.59;37.08;94599.16;5093019;28;20517;-60
2022/04/03 08:12:45;;;;;;;4.10;0.80;;;;;;;14.25;37.23;94610.47;5093089;28;20464;-60
2022/04/03 08:15:15;;;;;;;0.30;0.20;;;;;;;15.09;35.44;94594.97;5093019;28;20412;-59
2022/04/03 08:17:43;;;;;;;0.30;0.20;;;;;;;14.51;36.25;94597.25;5092874;28;20514;-60
2022/04/03 08:20:16;;;;;;;0.30;0.20;;;;;;;15.43;34.89;94596.03;5092946;28;20460;-61
2022/04/03 08:22:47;;;;;;;0.40;0.40;;;;;;;15.03;36.17;94606.88;5092913;28;20413;-60
2022/04/03 08:25:17;;;;;;;0.30;0.20;;;;;;;14.50;36.37;94607.13;5092183;28;20473;-60
2022/04/03 08:27:47;;;;;;;0.43;0.40;;;;;;;14.34;34.57;94621.22;5092094;28;20428;-61
2022/04/03 08:30:17;;;;;;;0.40;0.30;;;;;;;14.24;34.37;94597.47;5091174;28;20412;-61
2022/04/03 08:32:47;;;;;;;0.40;0.30;;;;;;;13.70;35.92;94617.28;5092790;28;20814;-58
2022/04/03 08:35:16;;;;;;;0.30;0.20;;;;;;;12.77;37.68;94497.41;5092616;28;20483;-56
2022/04/03 08:37:47;;;;;;;0.30;0.20;;;;;;;13.88;36.61;94619.75;5092781;28;20471;-56
2022/04/03 08:40:19;;;;;;;0.50;0.50;;;;;;;14.45;35.03;94622.47;5092420;28;20412;-57
2022/04/03 08:42:48;;;;;;;0.30;0.30;;;;;;;14.18;36.21;94614.69;5092356;28;20961;-56
2022/04/03 08:45:16;;;;;;;9.00;1.30;;;;;;;14.22;35.81;94608.44;5092489;28;20934;-55
2022/04/03 08:47:47;;;;;;;0.30;0.30;;;;;;;13.26;36.93;94624.22;5092454;28;21075;-55
2022/04/03 08:50:17;;;;;;;0.30;0.20;;;;;;;13.46;37.13;94617.63;5092380;28;20425;-55
2022/04/03 08:52:49;;;;;;;0.30;0.20;;;;;;;14.06;40.66;94633.16;5092567;28;20416;-56
2022/04/03 08:55:18;;;;;;;0.30;0.20;;;;;;;14.94;40.64;94594.66;5092342;28;20433;-57
2022/04/03 08:57:51;;;;;;;0.30;0.20;;;;;;;15.57;35.52;94637.50;5092324;28;20456;-59
2022/04/03 09:00:21;;;;;;;0.30;0.20;;;;;;;15.33;37.28;94615.06;5092280;28;20796;-59
2022/04/03 09:02:51;;;;;;;0.30;0.20;;;;;;;14.55;38.72;94640.84;5092629;28;20508;-59
2022/04/03 09:05:20;;;;;;;0.30;0.20;;;;;;;14.90;38.23;94647.84;5092682;28;20839;-61
2022/04/03 09:08:01;;;;;;;0.30;0.20;;;;;;;15.21;36.94;94637.03;5092177;28;20948;-61
2022/04/03 09:10:31;;;;;;;0.30;0.20;;;;;;;16.11;34.97;94629.84;5092271;28;20847;-61
2022/04/03 09:12:59;;;;;;;0.50;0.40;;;;;;;16.39;34.14;94625.66;5092291;28;20423;-59
2022/04/03 09:15:30;;;;;;;0.40;0.40;;;;;;;17.02;33.01;94644.22;5093607;28;20425;-61
2022/04/03 09:18:00;;;;;;;0.40;0.30;;;;;;;17.73;31.51;94623.44;5094078;28;20459;-62
2022/04/03 09:20:31;;;;;;;0.40;0.30;;;;;;;17.81;32.52;94626.41;5093049;28;20425;-61
2022/04/03 09:23:02;;;;;;;0.70;0.70;;;;;;;15.40;45.22;94671.44;5093423;28;20936;-62
2022/04/03 09:25:35;;;;;;;0.30;0.30;;;;;;;15.25;42.55;94651.34;5094799;28;20452;-62
2022/04/03 09:28:06;;;;;;;0.37;0.33;;;;;;;14.92;44.33;94664.34;5093796;28;20812;-60
2022/04/03 09:30:36;;;;;;;0.30;0.20;;;;;;;15.03;46.35;94675.47;5093512;28;20904;-61
2022/04/03 09:33:07;;;;;;;0.30;0.20;;;;;;;13.81;44.44;94677.97;5092607;28;20428;-62
2022/04/03 09:35:54;;;;;;;0.30;0.20;;;;;;;13.48;45.13;94682.00;5093785;28;20475;-60
2022/04/03 09:38:27;;;;;;;0.40;0.30;;;;;;;12.92;48.15;94690.41;5093385;28;20551;-58
2022/04/03 09:40:58;;;;;;;0.30;0.20;;;;;;;12.56;51.57;94700.19;5092887;28;20477;-58
2022/04/03 09:43:35;;;;;;;0.30;0.20;;;;;;;13.55;52.00;94690.34;5096243;28;20451;-58
2022/04/03 09:46:05;;;;;;;0.30;0.20;;;;;;;13.88;50.26;94693.53;5096171;28;20424;-56
2022/04/03 09:48:36;;;;;;;0.40;0.20;;;;;;;14.13;48.84;94652.94;5095752;28;20802;-57
2022/04/03 09:51:06;;;;;;;0.40;0.40;;;;;;;15.21;40.93;94645.84;5095523;28;20515;-59
2022/04/03 09:53:44;;;;;;;0.30;0.20;;;;;;;17.36;41.61;94628.97;5095695;28;20412;-60
2022/04/03 09:56:14;;;;;;;1.10;0.60;;;;;;;18.31;36.13;94624.25;5095696;28;20931;-60
2022/04/03 09:58:57;;;;;;;0.40;0.20;;;;;;;17.91;38.80;94650.88;5095293;28;20567;-60
2022/04/03 10:01:28;;;;;;;0.40;0.30;;;;;;;16.63;38.81;94647.25;5095619;28;20435;-60
2022/04/03 10:03:58;;;;;;;1.70;1.53;;;;;;;16.80;40.91;94641.03;5095886;28;20416;-60
2022/04/03 10:06:26;;;;;;;0.30;0.30;;;;;;;16.76;39.20;94634.75;5095364;28;20430;-60
2022/04/03 10:08:57;;;;;;;0.40;0.30;;;;;;;16.72;35.85;94621.22;5095575;28;20500;-60
2022/04/03 10:11:27;;;;;;;0.30;0.20;;;;;;;17.01;35.23;94623.88;5095587;28;20970;-60
2022/04/03 10:13:55;;;;;;;0.40;0.30;;;;;;;16.83;33.09;94635.03;5095508;28;20926;-60
2022/04/03 10:16:24;;;;;;;0.40;0.40;;;;;;;16.48;33.90;94627.16;5095821;28;20416;-60
2022/04/03 10:18:53;;;;;;;0.40;0.40;;;;;;;17.18;33.17;94644.38;5095218;28;20543;-60
2022/04/03 10:21:29;;;;;;;0.30;0.20;;;;;;;16.21;33.82;94632.16;5095655;28;20432;-60
2022/04/03 10:24:03;;;;;;;0.40;0.30;;;;;;;17.32;31.83;94631.53;5095246;28;20460;-60
2022/04/03 10:26:35;;;;;;;0.33;0.20;;;;;;;17.74;31.61;94641.09;5095078;28;20557;-60
2022/04/03 10:29:08;;;;;;;0.40;0.30;;;;;;;17.58;31.24;94632.09;5095178;28;20478;-60
2022/04/03 10:31:37;;;;;;;0.43;0.40;;;;;;;19.03;28.66;94632.28;5095308;28;20504;-60
2022/04/03 10:34:06;;;;;;;0.50;0.50;;;;;;;18.39;31.46;94642.91;5094937;28;20448;-60
2022/04/03 10:36:38;;;;;;;0.80;0.80;;;;;;;18.56;30.89;94652.69;5094914;28;20413;-60
2022/04/03 10:39:09;;;;;;;0.40;0.20;;;;;;;17.58;28.66;94664.25;5094873;28;20939;-61
2022/04/03 10:41:40;;;;;;;0.40;0.30;;;;;;;15.32;33.54;94683.69;5094929;28;20413;-61
2022/04/03 10:44:14;;;;;;;0.40;0.30;;;;;;;15.22;40.17;94711.47;5094740;28;20952;-60
2022/04/03 10:47:16;;;;;;;0.30;0.20;;;;;;;14.19;45.16;94681.03;5094738;28;20456;-59
2022/04/03 10:49:49;;;;;;;0.40;0.20;;;;;;;15.77;46.10;94663.56;5093282;28;20447;-61
2022/04/03 10:52:29;;;;;;;0.50;0.30;;;;;;;16.51;42.41;94661.31;5093706;28;20842;-62
2022/04/03 10:55:02;;;;;;;0.40;0.30;;;;;;;16.87;42.98;94662.72;5094500;28;20500;-60
2022/04/03 10:57:35;;;;;;;0.40;0.40;;;;;;;16.64;38.45;94669.44;5094278;28;20969;-60
2022/04/03 11:00:41;;;;;;;0.30;0.20;;;;;;;17.28;36.04;94665.41;5094422;28;20428;-60
2022/04/03 11:03:33;;;;;;;0.30;0.20;;;;;;;16.99;36.28;94671.63;5094382;28;20773;-60
2022/04/03 11:06:29;;;;;;;0.30;0.30;;;;;;;17.43;34.65;94664.81;5094383;28;20429;-61
2022/04/03 11:09:12;;;;;;;0.40;0.37;;;;;;;17.93;34.72;94666.63;5094448;28;20520;-61
2022/04/03 11:11:53;;;;;;;0.30;0.20;;;;;;;17.89;31.32;94663.81;5094258;28;20968;-61
2022/04/03 11:14:55;;;;;;;0.30;0.20;;;;;;;18.32;29.05;94658.78;5094721;28;20898;-60
2022/04/03 11:17:49;;;;;;;1.67;0.80;;;;;;;17.89;29.04;94666.50;5093594;28;20492;-61
2022/04/03 11:20:42;;;;;;;0.40;0.20;;;;;;;19.10;29.67;94660.50;5094510;28;20577;-59
2022/04/03 11:23:15;;;;;;;0.30;0.20;;;;;;;19.68;28.75;94656.44;5093976;28;20471;-59
2022/04/03 11:25:45;;;;;;;0.40;0.40;;;;;;;19.26;30.21;94669.41;5094390;28;20425;-59
2022/04/03 11:28:15;;;;;;;0.40;0.30;;;;;;;18.27;28.91;94671.63;5093910;28;20511;-61
2022/04/03 11:30:46;;;;;;;0.40;0.30;;;;;;;16.65;31.75;94682.50;5093937;28;20468;-62
2022/04/03 11:33:16;;;;;;;0.30;0.20;;;;;;;16.13;30.78;94676.53;5093691;28;20417;-62
2022/04/03 11:35:46;;;;;;;0.30;0.20;;;;;;;15.26;31.70;94647.56;5093874;28;20412;-62
2022/04/03 11:38:17;;;;;;;0.30;0.20;;;;;;;16.49;34.84;94655.47;5093678;28;20547;-61
2022/04/03 11:40:46;;;;;;;0.30;0.20;;;;;;;16.15;30.63;94668.97;5093800;28;20995;-62
2022/04/03 11:43:18;;;;;;;0.40;0.20;;;;;;;16.12;30.85;94661.59;5093540;28;20468;-61
2022/04/03 11:45:54;;;;;;;0.30;0.30;;;;;;;16.07;30.90;94677.81;5093619;28;20473;-60
2022/04/03 11:48:24;;;;;;;1.90;1.90;;;;;;;16.23;30.45;94670.06;5093806;28;20421;-59
2022/04/03 11:51:04;;;;;;;0.40;0.30;;;;;;;18.42;29.00;94668.28;5093578;28;20524;-60